sensor_id;sensor_type;location;lat;lon;timestamp;temperature;humidity
28189;DHT22;15471;51.166;4.470;2022-10-16T00:00:41;13.90;99.90
28189;DHT22;15471;51.166;4.470;2022-10-16T00:03:07;13.90;99.90
28189;DHT22;15471;51.166;4.470;2022-10-16T00:05:38;13.90;99.90
28189;DHT22;15471;51.166;4.470;2022-10-16T00:08:05;14.00;99.90
28189;DHT22;15471;51.166;4.470;2022-10-16T00:10:30;13.90;99.90
28189;DHT22;15471;51.166;4.470;2022-10-16T00:12:56;13.90;99.90
28189;DHT22;15471;51.166;4.470;2022-10-16T00:15:23;13.80;99.90
28189;DHT22;15471;51.166;4.470;2022-10-16T00:17:48;13.90;99.90
28189;DHT22;15471;51.166;4.470;2022-10-16T00:20:14;13.90;99.90
28189;DHT22;15471;51.166;4.470;2022-10-16T00:22:40;13.90;99.90
28189;DHT22;15471;51.166;4.470;2022-10-16T00:25:06;13.90;99.90
28189;DHT22;15471;51.166;4.470;2022-10-16T00:27:33;13.90;99.90
28189;DHT22;15471;51.166;4.470;2022-10-16T00:29:59;13.90;99.90
28189;DHT22;15471;51.166;4.470;2022-10-16T00:32:25;13.90;99.90
28189;DHT22;15471;51.166;4.470;2022-10-16T00:34:51;13.90;99.90
28189;DHT22;15471;51.166;4.470;2022-10-16T00:37:20;13.90;99.90
28189;DHT22;15471;51.166;4.470;2022-10-16T00:39:46;13.90;99.90
28189;DHT22;15471;51.166;4.470;2022-10-16T00:42:19;13.80;99.90
28189;DHT22;15471;51.166;4.470;2022-10-16T00:44:51;13.80;99.90
28189;DHT22;15471;51.166;4.470;2022-10-16T00:47:22;13.70;99.90
28189;DHT22;15471;51.166;4.470;2022-10-16T00:49:52;13.60;99.90
28189;DHT22;15471;51.166;4.470;2022-10-16T00:52:19;13.60;99.90
28189;DHT22;15471;51.166;4.470;2022-10-16T00:54:46;13.60;99.90
28189;DHT22;15471;51.166;4.470;2022-10-16T00:57:12;13.60;99.90
28189;DHT22;15471;51.166;4.470;2022-10-16T00:59:40;13.60;99.90
28189;DHT22;15471;51.166;4.470;2022-10-16T01:02:09;13.70;99.90
28189;DHT22;15471;51.166;4.470;2022-10-16T01:04:39;13.70;99.90
28189;DHT22;15471;51.166;4.470;2022-10-16T01:13:11;13.80;99.90
28189;DHT22;15471;51.166;4.470;2022-10-16T01:15:48;13.70;99.90
28189;DHT22;15471;51.166;4.470;2022-10-16T01:18:32;13.70;99.90
28189;DHT22;15471;51.166;4.470;2022-10-16T01:21:03;13.60;99.90
28189;DHT22;15471;51.166;4.470;2022-10-16T01:23:57;13.60;99.90
28189;DHT22;15471;51.166;4.470;2022-10-16T01:29:30;13.60;99.90
28189;DHT22;15471;51.166;4.470;2022-10-16T01:32:08;13.70;99.90
28189;DHT22;15471;51.166;4.470;2022-10-16T01:34:47;13.70;99.90
28189;DHT22;15471;51.166;4.470;2022-10-16T01:37:32;13.70;99.90
28189;DHT22;15471;51.166;4.470;2022-10-16T01:40:00;13.60;99.90
28189;DHT22;15471;51.166;4.470;2022-10-16T01:42:33;13.60;99.90
28189;DHT22;15471;51.166;4.470;2022-10-16T01:45:01;13.60;99.90
28189;DHT22;15471;51.166;4.470;2022-10-16T01:47:30;13.50;99.90
28189;DHT22;15471;51.166;4.470;2022-10-16T01:49:58;13.40;99.90
28189;DHT22;15471;51.166;4.470;2022-10-16T01:52:26;13.40;99.90
28189;DHT22;15471;51.166;4.470;2022-10-16T01:54:55;13.30;99.90
28189;DHT22;15471;51.166;4.470;2022-10-16T01:57:24;13.30;99.90
28189;DHT22;15471;51.166;4.470;2022-10-16T01:59:54;13.30;99.90
28189;DHT22;15471;51.166;4.470;2022-10-16T02:02:22;13.30;99.90
28189;DHT22;15471;51.166;4.470;2022-10-16T02:04:57;13.30;99.90
28189;DHT22;15471;51.166;4.470;2022-10-16T02:07:24;13.30;99.90
28189;DHT22;15471;51.166;4.470;2022-10-16T02:09:50;13.30;99.90
28189;DHT22;15471;51.166;4.470;2022-10-16T02:12:31;13.20;99.90
28189;DHT22;15471;51.166;4.470;2022-10-16T02:14:58;13.20;99.90
28189;DHT22;15471;51.166;4.470;2022-10-16T02:17:24;13.20;99.90
28189;DHT22;15471;51.166;4.470;2022-10-16T02:19:54;13.20;99.90
28189;DHT22;15471;51.166;4.470;2022-10-16T02:22:34;13.20;99.90
28189;DHT22;15471;51.166;4.470;2022-10-16T02:25:03;13.20;99.90
28189;DHT22;15471;51.166;4.470;2022-10-16T02:27:41;13.20;99.90
28189;DHT22;15471;51.166;4.470;2022-10-16T02:30:30;13.20;99.90
28189;DHT22;15471;51.166;4.470;2022-10-16T02:32:59;13.10;99.90
28189;DHT22;15471;51.166;4.470;2022-10-16T02:35:26;13.20;99.90
28189;DHT22;15471;51.166;4.470;2022-10-16T02:37:53;13.10;99.90
28189;DHT22;15471;51.166;4.470;2022-10-16T02:40:21;13.10;99.90
28189;DHT22;15471;51.166;4.470;2022-10-16T02:42:50;13.10;99.90
28189;DHT22;15471;51.166;4.470;2022-10-16T02:45:17;13.10;99.90
28189;DHT22;15471;51.166;4.470;2022-10-16T02:47:43;13.10;99.90
28189;DHT22;15471;51.166;4.470;2022-10-16T02:50:09;13.10;99.90
28189;DHT22;15471;51.166;4.470;2022-10-16T02:52:35;13.10;99.90
28189;DHT22;15471;51.166;4.470;2022-10-16T02:55:02;13.10;99.90
28189;DHT22;15471;51.166;4.470;2022-10-16T02:57:28;13.00;99.90
28189;DHT22;15471;51.166;4.470;2022-10-16T02:59:54;13.00;99.90
28189;DHT22;15471;51.166;4.470;2022-10-16T03:02:20;13.10;99.90
28189;DHT22;15471;51.166;4.470;2022-10-16T03:04:46;13.10;99.90
28189;DHT22;15471;51.166;4.470;2022-10-16T03:07:12;13.00;99.90
28189;DHT22;15471;51.166;4.470;2022-10-16T03:09:38;13.00;99.90
28189;DHT22;15471;51.166;4.470;2022-10-16T03:12:04;13.00;99.90
28189;DHT22;15471;51.166;4.470;2022-10-16T03:14:30;13.00;99.90
28189;DHT22;15471;51.166;4.470;2022-10-16T03:16:56;13.10;99.90
28189;DHT22;15471;51.166;4.470;2022-10-16T03:19:22;13.00;99.90
28189;DHT22;15471;51.166;4.470;2022-10-16T03:21:48;13.10;99.90
28189;DHT22;15471;51.166;4.470;2022-10-16T03:24:14;13.10;99.90
28189;DHT22;15471;51.166;4.470;2022-10-16T03:26:41;13.10;99.90
28189;DHT22;15471;51.166;4.470;2022-10-16T03:29:07;13.10;99.90
28189;DHT22;15471;51.166;4.470;2022-10-16T03:31:33;13.00;99.90
28189;DHT22;15471;51.166;4.470;2022-10-16T03:33:59;13.10;99.90
28189;DHT22;15471;51.166;4.470;2022-10-16T03:36:26;13.00;99.90
28189;DHT22;15471;51.166;4.470;2022-10-16T03:38:52;13.10;99.90
28189;DHT22;15471;51.166;4.470;2022-10-16T03:41:18;13.10;99.90
28189;DHT22;15471;51.166;4.470;2022-10-16T03:43:44;13.20;99.90
28189;DHT22;15471;51.166;4.470;2022-10-16T03:46:10;13.10;99.90
28189;DHT22;15471;51.166;4.470;2022-10-16T03:48:36;13.20;99.90
28189;DHT22;15471;51.166;4.470;2022-10-16T03:51:02;13.20;99.90
28189;DHT22;15471;51.166;4.470;2022-10-16T03:53:28;13.20;99.90
28189;DHT22;15471;51.166;4.470;2022-10-16T03:55:54;13.20;99.90
28189;DHT22;15471;51.166;4.470;2022-10-16T03:58:20;13.20;99.90
28189;DHT22;15471;51.166;4.470;2022-10-16T04:00:46;13.20;99.90
28189;DHT22;15471;51.166;4.470;2022-10-16T04:03:13;13.20;99.90
28189;DHT22;15471;51.166;4.470;2022-10-16T04:05:39;13.20;99.90
28189;DHT22;15471;51.166;4.470;2022-10-16T04:08:05;13.20;99.90
28189;DHT22;15471;51.166;4.470;2022-10-16T04:10:32;13.20;99.90
28189;DHT22;15471;51.166;4.470;2022-10-16T04:12:58;13.20;99.90
28189;DHT22;15471;51.166;4.470;2022-10-16T04:15:24;13.20;99.90
28189;DHT22;15471;51.166;4.470;2022-10-16T04:17:51;13.30;99.90
28189;DHT22;15471;51.166;4.470;2022-10-16T04:20:17;13.20;99.90
28189;DHT22;15471;51.166;4.470;2022-10-16T04:22:43;13.20;99.90
28189;DHT22;15471;51.166;4.470;2022-10-16T04:25:10;13.20;99.90
28189;DHT22;15471;51.166;4.470;2022-10-16T04:27:37;13.20;99.90
28189;DHT22;15471;51.166;4.470;2022-10-16T04:30:04;13.20;99.90
28189;DHT22;15471;51.166;4.470;2022-10-16T04:32:30;13.30;99.90
28189;DHT22;15471;51.166;4.470;2022-10-16T04:34:56;13.20;99.90
28189;DHT22;15471;51.166;4.470;2022-10-16T04:37:26;13.20;99.90
28189;DHT22;15471;51.166;4.470;2022-10-16T04:39:53;13.20;99.90
28189;DHT22;15471;51.166;4.470;2022-10-16T04:42:20;13.20;99.90
28189;DHT22;15471;51.166;4.470;2022-10-16T04:44:46;13.20;99.90
28189;DHT22;15471;51.166;4.470;2022-10-16T04:47:13;13.10;99.90
28189;DHT22;15471;51.166;4.470;2022-10-16T04:49:39;13.00;99.90
28189;DHT22;15471;51.166;4.470;2022-10-16T04:52:05;13.00;99.90
28189;DHT22;15471;51.166;4.470;2022-10-16T04:54:31;13.00;99.90
28189;DHT22;15471;51.166;4.470;2022-10-16T04:56:57;12.90;99.90
28189;DHT22;15471;51.166;4.470;2022-10-16T04:59:24;13.00;99.90
28189;DHT22;15471;51.166;4.470;2022-10-16T05:01:50;13.00;99.90
28189;DHT22;15471;51.166;4.470;2022-10-16T05:04:16;12.90;99.90
28189;DHT22;15471;51.166;4.470;2022-10-16T05:06:42;12.90;99.90
28189;DHT22;15471;51.166;4.470;2022-10-16T05:09:09;12.90;99.90
28189;DHT22;15471;51.166;4.470;2022-10-16T05:11:35;12.90;99.90
28189;DHT22;15471;51.166;4.470;2022-10-16T05:14:01;12.80;99.90
28189;DHT22;15471;51.166;4.470;2022-10-16T05:16:27;12.80;99.90
28189;DHT22;15471;51.166;4.470;2022-10-16T05:18:54;12.80;99.90
28189;DHT22;15471;51.166;4.470;2022-10-16T05:21:20;12.80;99.90
28189;DHT22;15471;51.166;4.470;2022-10-16T05:23:46;12.90;99.90
28189;DHT22;15471;51.166;4.470;2022-10-16T05:26:12;12.90;99.90
28189;DHT22;15471;51.166;4.470;2022-10-16T05:28:38;12.80;99.90
28189;DHT22;15471;51.166;4.470;2022-10-16T05:31:08;12.80;99.90
28189;DHT22;15471;51.166;4.470;2022-10-16T05:33:35;12.90;99.90
28189;DHT22;15471;51.166;4.470;2022-10-16T05:36:05;12.80;99.90
28189;DHT22;15471;51.166;4.470;2022-10-16T05:38:33;12.80;99.90
28189;DHT22;15471;51.166;4.470;2022-10-16T05:40:59;12.80;99.90
28189;DHT22;15471;51.166;4.470;2022-10-16T05:43:27;12.70;99.90
28189;DHT22;15471;51.166;4.470;2022-10-16T05:45:58;12.70;99.90
28189;DHT22;15471;51.166;4.470;2022-10-16T05:48:24;12.70;99.90
28189;DHT22;15471;51.166;4.470;2022-10-16T05:51:05;12.70;99.90
28189;DHT22;15471;51.166;4.470;2022-10-16T05:53:34;12.70;99.90
28189;DHT22;15471;51.166;4.470;2022-10-16T05:56:01;12.70;99.90
28189;DHT22;15471;51.166;4.470;2022-10-16T05:58:34;12.70;99.90
28189;DHT22;15471;51.166;4.470;2022-10-16T06:01:05;12.70;99.90
28189;DHT22;15471;51.166;4.470;2022-10-16T06:03:33;12.80;99.90
28189;DHT22;15471;51.166;4.470;2022-10-16T06:05:59;12.70;99.90
28189;DHT22;15471;51.166;4.470;2022-10-16T06:08:32;12.70;99.90
28189;DHT22;15471;51.166;4.470;2022-10-16T06:11:07;12.80;99.90
28189;DHT22;15471;51.166;4.470;2022-10-16T06:13:33;12.90;99.90
28189;DHT22;15471;51.166;4.470;2022-10-16T06:16:01;12.90;99.90
28189;DHT22;15471;51.166;4.470;2022-10-16T06:18:27;13.00;99.90
28189;DHT22;15471;51.166;4.470;2022-10-16T06:20:55;13.00;99.90
28189;DHT22;15471;51.166;4.470;2022-10-16T06:23:22;13.00;99.90
28189;DHT22;15471;51.166;4.470;2022-10-16T06:25:48;13.10;99.90
28189;DHT22;15471;51.166;4.470;2022-10-16T06:28:14;13.10;99.90
28189;DHT22;15471;51.166;4.470;2022-10-16T06:30:41;13.10;99.90
28189;DHT22;15471;51.166;4.470;2022-10-16T06:33:10;13.10;99.90
28189;DHT22;15471;51.166;4.470;2022-10-16T06:35:36;13.10;99.90
28189;DHT22;15471;51.166;4.470;2022-10-16T06:38:02;13.10;99.90
28189;DHT22;15471;51.166;4.470;2022-10-16T06:40:28;13.10;99.90
28189;DHT22;15471;51.166;4.470;2022-10-16T06:42:57;13.20;99.90
28189;DHT22;15471;51.166;4.470;2022-10-16T06:45:23;13.20;99.90
28189;DHT22;15471;51.166;4.470;2022-10-16T06:47:49;13.20;99.90
28189;DHT22;15471;51.166;4.470;2022-10-16T06:50:15;13.20;99.90
28189;DHT22;15471;51.166;4.470;2022-10-16T06:52:41;13.20;99.90
28189;DHT22;15471;51.166;4.470;2022-10-16T06:55:07;13.10;99.90
28189;DHT22;15471;51.166;4.470;2022-10-16T06:57:33;13.00;99.90
28189;DHT22;15471;51.166;4.470;2022-10-16T06:59:59;13.00;99.90
28189;DHT22;15471;51.166;4.470;2022-10-16T07:02:25;13.10;99.90
28189;DHT22;15471;51.166;4.470;2022-10-16T07:04:51;13.10;99.90
28189;DHT22;15471;51.166;4.470;2022-10-16T07:07:17;13.10;99.90
28189;DHT22;15471;51.166;4.470;2022-10-16T07:09:43;13.20;99.90
28189;DHT22;15471;51.166;4.470;2022-10-16T07:12:09;13.30;99.90
28189;DHT22;15471;51.166;4.470;2022-10-16T07:14:35;13.40;99.90
28189;DHT22;15471;51.166;4.470;2022-10-16T07:17:01;13.40;99.90
28189;DHT22;15471;51.166;4.470;2022-10-16T07:19:27;13.40;99.90
28189;DHT22;15471;51.166;4.470;2022-10-16T07:21:54;13.50;99.90
28189;DHT22;15471;51.166;4.470;2022-10-16T07:24:20;13.50;99.90
28189;DHT22;15471;51.166;4.470;2022-10-16T07:26:46;13.60;99.90
28189;DHT22;15471;51.166;4.470;2022-10-16T07:29:14;13.60;99.90
28189;DHT22;15471;51.166;4.470;2022-10-16T07:31:41;13.70;99.90
28189;DHT22;15471;51.166;4.470;2022-10-16T07:34:11;13.80;99.90
28189;DHT22;15471;51.166;4.470;2022-10-16T07:36:38;13.80;99.90
28189;DHT22;15471;51.166;4.470;2022-10-16T07:39:04;13.90;99.90
28189;DHT22;15471;51.166;4.470;2022-10-16T07:41:30;13.90;99.90
28189;DHT22;15471;51.166;4.470;2022-10-16T07:43:59;13.90;99.90
28189;DHT22;15471;51.166;4.470;2022-10-16T07:46:27;13.90;99.90
28189;DHT22;15471;51.166;4.470;2022-10-16T07:48:53;14.00;99.90
28189;DHT22;15471;51.166;4.470;2022-10-16T07:51:22;14.00;99.90
28189;DHT22;15471;51.166;4.470;2022-10-16T07:53:52;14.10;99.90
28189;DHT22;15471;51.166;4.470;2022-10-16T07:56:21;14.10;99.90
28189;DHT22;15471;51.166;4.470;2022-10-16T07:58:47;14.10;99.90
28189;DHT22;15471;51.166;4.470;2022-10-16T08:01:16;14.10;99.90
28189;DHT22;15471;51.166;4.470;2022-10-16T08:03:44;14.20;99.90
28189;DHT22;15471;51.166;4.470;2022-10-16T08:06:10;14.30;99.90
28189;DHT22;15471;51.166;4.470;2022-10-16T08:08:43;14.30;99.90
28189;DHT22;15471;51.166;4.470;2022-10-16T08:11:18;14.50;99.90
28189;DHT22;15471;51.166;4.470;2022-10-16T08:13:44;14.50;99.90
28189;DHT22;15471;51.166;4.470;2022-10-16T08:16:11;14.50;99.90
28189;DHT22;15471;51.166;4.470;2022-10-16T08:18:38;14.60;99.90
28189;DHT22;15471;51.166;4.470;2022-10-16T08:21:07;14.60;99.90
28189;DHT22;15471;51.166;4.470;2022-10-16T08:23:33;14.60;99.90
28189;DHT22;15471;51.166;4.470;2022-10-16T08:26:05;14.80;99.90
28189;DHT22;15471;51.166;4.470;2022-10-16T08:28:31;15.10;99.90
28189;DHT22;15471;51.166;4.470;2022-10-16T08:31:18;15.40;99.90
28189;DHT22;15471;51.166;4.470;2022-10-16T08:33:45;16.00;99.90
28189;DHT22;15471;51.166;4.470;2022-10-16T08:36:13;16.60;99.90
28189;DHT22;15471;51.166;4.470;2022-10-16T08:38:41;17.20;99.90
28189;DHT22;15471;51.166;4.470;2022-10-16T08:47:19;17.30;99.90
28189;DHT22;15471;51.166;4.470;2022-10-16T08:49:59;17.30;99.90
28189;DHT22;15471;51.166;4.470;2022-10-16T08:52:34;17.10;99.90
28189;DHT22;15471;51.166;4.470;2022-10-16T08:55:01;17.60;99.90
28189;DHT22;15471;51.166;4.470;2022-10-16T08:57:27;17.70;99.90
28189;DHT22;15471;51.166;4.470;2022-10-16T08:59:54;17.60;99.90
28189;DHT22;15471;51.166;4.470;2022-10-16T09:02:39;17.40;99.90
28189;DHT22;15471;51.166;4.470;2022-10-16T09:11:22;17.70;99.90
28189;DHT22;15471;51.166;4.470;2022-10-16T09:16:35;17.70;99.90
28189;DHT22;15471;51.166;4.470;2022-10-16T09:21:45;17.80;99.90
28189;DHT22;15471;51.166;4.470;2022-10-16T09:24:16;18.20;99.90
28189;DHT22;15471;51.166;4.470;2022-10-16T09:26:43;18.20;99.90
28189;DHT22;15471;51.166;4.470;2022-10-16T09:29:14;18.20;99.90
28189;DHT22;15471;51.166;4.470;2022-10-16T09:31:41;18.40;99.90
28189;DHT22;15471;51.166;4.470;2022-10-16T09:34:27;18.40;99.90
28189;DHT22;15471;51.166;4.470;2022-10-16T09:36:57;18.00;99.90
28189;DHT22;15471;51.166;4.470;2022-10-16T09:39:24;17.80;99.90
28189;DHT22;15471;51.166;4.470;2022-10-16T09:41:51;17.60;99.90
28189;DHT22;15471;51.166;4.470;2022-10-16T09:44:27;17.70;99.90
28189;DHT22;15471;51.166;4.470;2022-10-16T09:47:25;17.60;99.90
28189;DHT22;15471;51.166;4.470;2022-10-16T09:49:58;17.20;99.90
28189;DHT22;15471;51.166;4.470;2022-10-16T09:52:27;17.40;99.90
28189;DHT22;15471;51.166;4.470;2022-10-16T09:55:02;17.60;99.90
28189;DHT22;15471;51.166;4.470;2022-10-16T09:57:29;17.90;99.90
28189;DHT22;15471;51.166;4.470;2022-10-16T09:59:57;18.10;99.90
28189;DHT22;15471;51.166;4.470;2022-10-16T10:02:42;17.90;99.90
28189;DHT22;15471;51.166;4.470;2022-10-16T10:05:20;17.60;99.90
28189;DHT22;15471;51.166;4.470;2022-10-16T10:07:57;17.40;99.90
28189;DHT22;15471;51.166;4.470;2022-10-16T10:10:26;17.50;99.90
28189;DHT22;15471;51.166;4.470;2022-10-16T10:12:52;17.50;99.90
28189;DHT22;15471;51.166;4.470;2022-10-16T10:15:19;17.60;99.90
28189;DHT22;15471;51.166;4.470;2022-10-16T10:17:53;17.60;99.90
28189;DHT22;15471;51.166;4.470;2022-10-16T10:20:28;17.40;99.90
28189;DHT22;15471;51.166;4.470;2022-10-16T10:22:55;17.50;99.90
28189;DHT22;15471;51.166;4.470;2022-10-16T10:31:49;17.30;99.90
28189;DHT22;15471;51.166;4.470;2022-10-16T10:35:28;17.30;99.90
28189;DHT22;15471;51.166;4.470;2022-10-16T10:45:42;17.70;99.90
28189;DHT22;15471;51.166;4.470;2022-10-16T10:51:31;17.70;99.90
28189;DHT22;15471;51.166;4.470;2022-10-16T10:54:15;17.90;99.90
28189;DHT22;15471;51.166;4.470;2022-10-16T10:57:01;18.10;99.90
28189;DHT22;15471;51.166;4.470;2022-10-16T10:59:48;18.30;99.90
28189;DHT22;15471;51.166;4.470;2022-10-16T11:07:40;18.40;99.90
28189;DHT22;15471;51.166;4.470;2022-10-16T11:10:27;18.30;99.90
28189;DHT22;15471;51.166;4.470;2022-10-16T11:12:59;18.40;99.90
28189;DHT22;15471;51.166;4.470;2022-10-16T11:15:35;18.30;99.90
28189;DHT22;15471;51.166;4.470;2022-10-16T11:18:33;18.40;99.90
28189;DHT22;15471;51.166;4.470;2022-10-16T11:21:09;18.50;99.90
28189;DHT22;15471;51.166;4.470;2022-10-16T11:23:38;18.70;99.90
28189;DHT22;15471;51.166;4.470;2022-10-16T11:26:16;18.90;99.90
28189;DHT22;15471;51.166;4.470;2022-10-16T11:28:53;18.90;99.90
28189;DHT22;15471;51.166;4.470;2022-10-16T11:34:21;19.00;99.90
28189;DHT22;15471;51.166;4.470;2022-10-16T11:37:02;19.00;99.90
28189;DHT22;15471;51.166;4.470;2022-10-16T11:39:32;18.80;99.90
28189;DHT22;15471;51.166;4.470;2022-10-16T11:42:32;19.00;99.90
28189;DHT22;15471;51.166;4.470;2022-10-16T11:45:07;19.10;99.90
28189;DHT22;15471;51.166;4.470;2022-10-16T11:47:47;19.20;99.90
28189;DHT22;15471;51.166;4.470;2022-10-16T11:55:47;19.40;99.90
28189;DHT22;15471;51.166;4.470;2022-10-16T12:08:45;18.70;99.90
28189;DHT22;15471;51.166;4.470;2022-10-16T12:11:35;18.50;99.90
28189;DHT22;15471;51.166;4.470;2022-10-16T12:16:57;18.30;99.90
28189;DHT22;15471;51.166;4.470;2022-10-16T12:19:30;18.70;99.90
28189;DHT22;15471;51.166;4.470;2022-10-16T12:21:58;18.80;99.90
28189;DHT22;15471;51.166;4.470;2022-10-16T12:24:38;19.00;99.90
28189;DHT22;15471;51.166;4.470;2022-10-16T12:27:40;19.00;99.90
28189;DHT22;15471;51.166;4.470;2022-10-16T12:30:06;18.80;99.90
28189;DHT22;15471;51.166;4.470;2022-10-16T12:32:38;18.60;99.90
28189;DHT22;15471;51.166;4.470;2022-10-16T12:35:16;18.30;99.90
28189;DHT22;15471;51.166;4.470;2022-10-16T12:37:44;18.20;99.90
28189;DHT22;15471;51.166;4.470;2022-10-16T12:42:39;18.20;99.90
28189;DHT22;15471;51.166;4.470;2022-10-16T12:47:53;18.40;99.90
28189;DHT22;15471;51.166;4.470;2022-10-16T12:50:32;18.50;99.90
28189;DHT22;15471;51.166;4.470;2022-10-16T12:52:59;18.60;99.90
28189;DHT22;15471;51.166;4.470;2022-10-16T12:55:26;18.70;99.90
28189;DHT22;15471;51.166;4.470;2022-10-16T13:04:14;19.10;99.90
28189;DHT22;15471;51.166;4.470;2022-10-16T13:10:04;19.50;99.90
28189;DHT22;15471;51.166;4.470;2022-10-16T13:12:55;19.60;99.90
28189;DHT22;15471;51.166;4.470;2022-10-16T13:18:02;19.80;99.90
28189;DHT22;15471;51.166;4.470;2022-10-16T13:28:59;20.40;99.90
28189;DHT22;15471;51.166;4.470;2022-10-16T13:31:27;20.50;99.90
28189;DHT22;15471;51.166;4.470;2022-10-16T13:33:56;20.60;99.90
28189;DHT22;15471;51.166;4.470;2022-10-16T13:36:35;20.60;99.90
28189;DHT22;15471;51.166;4.470;2022-10-16T13:39:14;20.60;99.90
28189;DHT22;15471;51.166;4.470;2022-10-16T13:41:43;20.50;99.90
28189;DHT22;15471;51.166;4.470;2022-10-16T13:44:19;20.40;99.90
28189;DHT22;15471;51.166;4.470;2022-10-16T13:46:46;20.50;99.90
28189;DHT22;15471;51.166;4.470;2022-10-16T13:49:15;20.60;99.90
28189;DHT22;15471;51.166;4.470;2022-10-16T13:51:53;20.90;99.90
28189;DHT22;15471;51.166;4.470;2022-10-16T13:54:18;21.00;99.90
28189;DHT22;15471;51.166;4.470;2022-10-16T13:56:44;21.10;99.90
28189;DHT22;15471;51.166;4.470;2022-10-16T13:59:33;21.20;99.90
28189;DHT22;15471;51.166;4.470;2022-10-16T14:02:05;21.30;99.90
28189;DHT22;15471;51.166;4.470;2022-10-16T14:04:38;21.10;99.90
28189;DHT22;15471;51.166;4.470;2022-10-16T14:07:05;21.10;99.90
28189;DHT22;15471;51.166;4.470;2022-10-16T14:09:32;21.20;99.90
28189;DHT22;15471;51.166;4.470;2022-10-16T14:12:10;21.20;99.90
28189;DHT22;15471;51.166;4.470;2022-10-16T14:14:42;21.30;99.90
28189;DHT22;15471;51.166;4.470;2022-10-16T14:17:16;21.20;99.90
28189;DHT22;15471;51.166;4.470;2022-10-16T14:19:49;21.10;99.90
28189;DHT22;15471;51.166;4.470;2022-10-16T14:24:56;20.70;99.90
28189;DHT22;15471;51.166;4.470;2022-10-16T14:27:34;20.60;99.90
28189;DHT22;15471;51.166;4.470;2022-10-16T14:32:40;20.60;99.90
28189;DHT22;15471;51.166;4.470;2022-10-16T14:35:30;20.70;99.90
28189;DHT22;15471;51.166;4.470;2022-10-16T14:37:58;20.70;99.90
28189;DHT22;15471;51.166;4.470;2022-10-16T14:40:33;20.60;99.90
28189;DHT22;15471;51.166;4.470;2022-10-16T14:43:00;20.50;99.90
28189;DHT22;15471;51.166;4.470;2022-10-16T14:45:28;20.50;99.90
28189;DHT22;15471;51.166;4.470;2022-10-16T14:48:00;20.50;99.90
28189;DHT22;15471;51.166;4.470;2022-10-16T14:50:27;20.40;99.90
28189;DHT22;15471;51.166;4.470;2022-10-16T14:52:53;20.20;99.90
28189;DHT22;15471;51.166;4.470;2022-10-16T14:55:19;20.20;99.90
28189;DHT22;15471;51.166;4.470;2022-10-16T14:57:46;20.10;99.90
28189;DHT22;15471;51.166;4.470;2022-10-16T15:00:19;20.10;99.90
28189;DHT22;15471;51.166;4.470;2022-10-16T15:02:47;20.00;99.90
28189;DHT22;15471;51.166;4.470;2022-10-16T15:07:43;20.00;99.90
28189;DHT22;15471;51.166;4.470;2022-10-16T15:10:09;19.90;99.90
28189;DHT22;15471;51.166;4.470;2022-10-16T15:12:36;19.80;99.90
28189;DHT22;15471;51.166;4.470;2022-10-16T15:15:08;19.80;99.90
28189;DHT22;15471;51.166;4.470;2022-10-16T15:17:41;19.70;99.90
28189;DHT22;15471;51.166;4.470;2022-10-16T15:20:07;19.70;99.90
28189;DHT22;15471;51.166;4.470;2022-10-16T15:22:33;19.70;99.90
28189;DHT22;15471;51.166;4.470;2022-10-16T15:24:59;19.60;99.90
28189;DHT22;15471;51.166;4.470;2022-10-16T15:27:25;19.50;99.90
28189;DHT22;15471;51.166;4.470;2022-10-16T15:29:51;19.50;99.90
28189;DHT22;15471;51.166;4.470;2022-10-16T15:32:17;19.40;99.90
28189;DHT22;15471;51.166;4.470;2022-10-16T15:34:43;19.40;99.90
28189;DHT22;15471;51.166;4.470;2022-10-16T15:37:10;19.40;99.90
28189;DHT22;15471;51.166;4.470;2022-10-16T15:39:37;19.40;99.90
28189;DHT22;15471;51.166;4.470;2022-10-16T15:42:03;19.30;99.90
28189;DHT22;15471;51.166;4.470;2022-10-16T15:44:31;19.30;99.90
28189;DHT22;15471;51.166;4.470;2022-10-16T15:46:57;19.20;99.90
28189;DHT22;15471;51.166;4.470;2022-10-16T15:49:23;19.20;99.90
28189;DHT22;15471;51.166;4.470;2022-10-16T15:51:49;19.10;99.90
28189;DHT22;15471;51.166;4.470;2022-10-16T15:54:15;19.00;99.90
28189;DHT22;15471;51.166;4.470;2022-10-16T15:56:42;19.00;99.90
28189;DHT22;15471;51.166;4.470;2022-10-16T15:59:08;18.90;99.90
28189;DHT22;15471;51.166;4.470;2022-10-16T16:01:34;18.90;99.90
28189;DHT22;15471;51.166;4.470;2022-10-16T16:04:01;18.80;99.90
28189;DHT22;15471;51.166;4.470;2022-10-16T16:06:27;18.70;99.90
28189;DHT22;15471;51.166;4.470;2022-10-16T16:08:54;18.50;99.90
28189;DHT22;15471;51.166;4.470;2022-10-16T16:11:20;18.30;99.90
28189;DHT22;15471;51.166;4.470;2022-10-16T16:13:48;18.30;99.90
28189;DHT22;15471;51.166;4.470;2022-10-16T16:16:15;18.30;99.90
28189;DHT22;15471;51.166;4.470;2022-10-16T16:18:42;18.40;99.90
28189;DHT22;15471;51.166;4.470;2022-10-16T16:21:10;18.30;99.90
28189;DHT22;15471;51.166;4.470;2022-10-16T16:23:36;18.20;99.90
28189;DHT22;15471;51.166;4.470;2022-10-16T16:26:09;18.10;99.90
28189;DHT22;15471;51.166;4.470;2022-10-16T16:28:37;18.10;99.90
28189;DHT22;15471;51.166;4.470;2022-10-16T16:31:03;18.00;99.90
28189;DHT22;15471;51.166;4.470;2022-10-16T16:33:29;18.00;99.90
28189;DHT22;15471;51.166;4.470;2022-10-16T16:35:58;17.90;99.90
28189;DHT22;15471;51.166;4.470;2022-10-16T16:38:24;17.80;99.90
28189;DHT22;15471;51.166;4.470;2022-10-16T16:40:50;17.80;99.90
28189;DHT22;15471;51.166;4.470;2022-10-16T16:43:18;17.80;99.90
28189;DHT22;15471;51.166;4.470;2022-10-16T16:45:44;17.70;99.90
28189;DHT22;15471;51.166;4.470;2022-10-16T16:48:10;17.70;99.90
28189;DHT22;15471;51.166;4.470;2022-10-16T16:50:36;17.70;99.90
28189;DHT22;15471;51.166;4.470;2022-10-16T16:53:02;17.70;99.90
28189;DHT22;15471;51.166;4.470;2022-10-16T16:55:29;17.70;99.90
28189;DHT22;15471;51.166;4.470;2022-10-16T16:57:56;17.50;99.90
28189;DHT22;15471;51.166;4.470;2022-10-16T17:00:22;17.50;99.90
28189;DHT22;15471;51.166;4.470;2022-10-16T17:02:49;17.50;99.90
28189;DHT22;15471;51.166;4.470;2022-10-16T17:05:16;17.50;99.90
28189;DHT22;15471;51.166;4.470;2022-10-16T17:07:43;17.40;99.90
28189;DHT22;15471;51.166;4.470;2022-10-16T17:10:10;17.40;99.90
28189;DHT22;15471;51.166;4.470;2022-10-16T17:12:36;17.30;99.90
28189;DHT22;15471;51.166;4.470;2022-10-16T17:15:02;17.20;99.90
28189;DHT22;15471;51.166;4.470;2022-10-16T17:17:28;17.30;99.90
28189;DHT22;15471;51.166;4.470;2022-10-16T17:19:54;17.30;99.90
28189;DHT22;15471;51.166;4.470;2022-10-16T17:22:20;17.40;99.90
28189;DHT22;15471;51.166;4.470;2022-10-16T17:24:49;17.40;99.90
28189;DHT22;15471;51.166;4.470;2022-10-16T17:27:17;17.40;99.90
28189;DHT22;15471;51.166;4.470;2022-10-16T17:29:44;17.40;99.90